createdAt,value
2018-02-01T00:00:13.118Z,6.10
2018-02-01T00:02:40.660Z,6.10
2018-02-01T00:05:08.134Z,6.00
2018-02-01T00:07:35.601Z,6.00
2018-02-01T00:10:03.365Z,6.10
2018-02-01T00:12:30.877Z,6.10
2018-02-01T00:14:59.153Z,6.20
2018-02-01T00:17:27.392Z,6.10
2018-02-01T00:19:54.878Z,6.10
2018-02-01T00:22:23.120Z,6.10
2018-02-01T00:24:50.605Z,6.10
2018-02-01T00:27:18.085Z,6.10
2018-02-01T00:29:46.651Z,6.10
2018-02-01T00:32:14.090Z,6.10
2018-02-01T00:34:41.561Z,6.10
2018-02-01T00:37:09.048Z,6.10
2018-02-01T00:39:36.521Z,6.10
2018-02-01T00:42:04.014Z,6.10
2018-02-01T00:44:31.485Z,6.10
2018-02-01T00:46:59.740Z,6.10
2018-02-01T00:49:27.213Z,6.10
2018-02-01T00:51:55.485Z,6.10
2018-02-01T00:54:22.953Z,6.00
2018-02-01T00:56:50.426Z,6.10
2018-02-01T00:59:18.680Z,6.10
2018-02-01T01:01:46.156Z,6.10
2018-02-01T01:04:14.408Z,6.10
2018-02-01T01:06:41.881Z,6.10
2018-02-01T01:09:09.368Z,6.10
2018-02-01T01:11:36.841Z,6.10
2018-02-01T01:14:04.317Z,6.10
2018-02-01T01:16:31.805Z,6.10
2018-02-01T01:18:59.273Z,6.00
2018-02-01T01:21:27.525Z,5.30
2018-02-01T01:23:55.001Z,5.30
2018-02-01T01:26:22.492Z,5.10
2018-02-01T01:28:50.020Z,4.90
2018-02-01T01:31:17.485Z,4.80
2018-02-01T01:33:45.736Z,4.70
2018-02-01T01:36:13.856Z,4.70
2018-02-01T01:38:41.340Z,4.60
2018-02-01T01:41:08.812Z,4.60
2018-02-01T01:43:36.305Z,4.60
2018-02-01T01:46:10.474Z,4.50
2018-02-01T01:48:37.964Z,4.40
2018-02-01T01:51:05.440Z,4.40
2018-02-01T01:53:34.103Z,4.40
2018-02-01T01:56:01.590Z,4.40
2018-02-01T01:58:29.124Z,4.40
2018-02-01T02:00:57.393Z,4.40
2018-02-01T02:03:24.864Z,4.40
2018-02-01T02:05:53.124Z,4.40
2018-02-01T02:08:20.601Z,4.40
2018-02-01T02:10:48.836Z,4.40
2018-02-01T02:13:16.364Z,4.40
2018-02-01T02:15:43.842Z,4.40
2018-02-01T02:18:11.329Z,4.40
2018-02-01T02:20:38.796Z,4.40
2018-02-01T02:23:07.346Z,4.40
2018-02-01T02:25:34.817Z,4.40
2018-02-01T02:28:02.290Z,4.40
2018-02-01T02:30:30.549Z,4.40
2018-02-01T02:32:58.025Z,4.40
2018-02-01T02:35:26.281Z,4.30
2018-02-01T02:37:53.752Z,4.30
2018-02-01T02:40:21.241Z,4.40
2018-02-01T02:42:48.709Z,4.40
2018-02-01T02:45:16.176Z,4.40
2018-02-01T02:47:43.668Z,4.50
2018-02-01T02:50:11.144Z,4.50
2018-02-01T02:52:39.397Z,4.50
2018-02-01T02:55:06.876Z,4.50
2018-02-01T02:57:35.132Z,4.50
2018-02-01T03:00:02.621Z,4.40
2018-02-01T03:02:30.875Z,4.50
2018-02-01T03:04:58.361Z,4.40
2018-02-01T03:07:25.833Z,4.50
2018-02-01T03:09:53.320Z,4.40
2018-02-01T03:12:20.792Z,4.40
2018-02-01T03:14:48.281Z,4.40
2018-02-01T03:17:16.517Z,4.30
2018-02-01T03:19:43.989Z,4.30
2018-02-01T03:22:11.478Z,4.30
2018-02-01T03:24:39.712Z,4.30
2018-02-01T03:27:07.206Z,4.30
2018-02-01T03:29:35.445Z,4.30
2018-02-01T03:32:02.933Z,4.30
2018-02-01T03:34:31.169Z,4.30
2018-02-01T03:36:58.640Z,4.30
2018-02-01T03:39:26.130Z,4.30
2018-02-01T03:41:53.606Z,4.30
2018-02-01T03:44:21.096Z,4.30
2018-02-01T03:46:48.565Z,4.30
2018-02-01T03:49:17.565Z,4.30
2018-02-01T03:51:45.037Z,4.30
2018-02-01T03:54:13.281Z,4.20
2018-02-01T03:56:41.651Z,4.20
2018-02-01T03:59:10.078Z,4.30
2018-02-01T04:01:39.734Z,4.30
2018-02-01T04:04:07.201Z,4.20
2018-02-01T04:06:34.692Z,4.20
2018-02-01T04:09:02.932Z,4.20
2018-02-01T04:11:30.401Z,4.20
2018-02-01T04:13:58.652Z,4.20
2018-02-01T04:16:26.127Z,4.20
2018-02-01T04:18:53.613Z,4.20
2018-02-01T04:21:21.850Z,4.10
2018-02-01T04:23:49.345Z,4.10
2018-02-01T04:26:17.584Z,4.20
2018-02-01T04:28:45.053Z,4.20
2018-02-01T04:31:12.544Z,4.20
2018-02-01T04:33:40.786Z,4.20
2018-02-01T04:36:08.273Z,4.20
2018-02-01T04:38:36.517Z,4.30
2018-02-01T04:41:04.253Z,4.30
2018-02-01T04:43:31.721Z,4.30
2018-02-01T04:45:59.213Z,4.30
2018-02-01T04:48:26.925Z,4.30
2018-02-01T04:50:54.396Z,4.30
2018-02-01T04:53:21.880Z,4.30
2018-02-01T04:55:49.356Z,4.20
2018-02-01T04:58:17.609Z,4.30
2018-02-01T05:00:45.082Z,4.30
2018-02-01T05:03:13.509Z,4.30
2018-02-01T05:05:41.272Z,4.30
2018-02-01T05:08:08.749Z,4.30
2018-02-01T05:10:36.237Z,4.30
2018-02-01T05:13:04.502Z,4.40
2018-02-01T05:15:31.996Z,4.40
2018-02-01T05:17:59.472Z,4.40
2018-02-01T05:20:26.960Z,4.40
2018-02-01T05:22:54.432Z,4.40
2018-02-01T05:25:21.908Z,4.40
2018-02-01T05:27:50.157Z,4.20
2018-02-01T05:30:17.625Z,4.20
2018-02-01T05:32:45.116Z,4.10
2018-02-01T05:35:12.584Z,4.00
2018-02-01T05:37:40.078Z,4.00
2018-02-01T05:40:07.553Z,3.90
2018-02-01T05:42:35.021Z,4.00
2018-02-01T05:45:03.277Z,4.10
2018-02-01T05:47:30.864Z,4.10
2018-02-01T05:49:59.117Z,4.10
2018-02-01T05:52:26.592Z,4.10
2018-02-01T05:54:54.829Z,3.90
2018-02-01T05:57:22.322Z,3.90
2018-02-01T05:59:50.556Z,3.80
2018-02-01T06:02:18.073Z,3.70
2018-02-01T06:04:45.540Z,3.60
2018-02-01T06:07:13.073Z,3.70
2018-02-01T06:09:41.695Z,3.50
2018-02-01T06:12:09.199Z,3.60
2018-02-01T06:14:36.693Z,3.60
2018-02-01T06:17:04.169Z,3.50
2018-02-01T06:19:31.661Z,3.60
2018-02-01T06:21:59.132Z,3.60
2018-02-01T06:24:27.465Z,3.40
2018-02-01T06:26:54.952Z,3.40
2018-02-01T06:29:23.200Z,3.40
2018-02-01T06:31:50.692Z,3.40
2018-02-01T06:34:18.164Z,3.40
2018-02-01T06:36:46.405Z,3.20
2018-02-01T06:39:13.890Z,3.20
2018-02-01T06:41:41.361Z,3.40
2018-02-01T06:44:10.361Z,3.20
2018-02-01T06:46:38.644Z,3.30
2018-02-01T06:49:06.180Z,3.20
2018-02-01T06:51:34.437Z,3.40
2018-02-01T06:54:01.905Z,3.30
2018-02-01T06:56:29.389Z,3.30
2018-02-01T06:58:56.973Z,3.40
2018-02-01T07:01:28.945Z,3.40
2018-02-01T07:03:56.417Z,3.40
2018-02-01T07:06:23.944Z,3.30
2018-02-01T07:08:51.393Z,3.30
2018-02-01T07:11:18.865Z,3.30
2018-02-01T07:13:46.352Z,3.40
2018-02-01T07:16:13.825Z,3.40
2018-02-01T07:18:41.309Z,3.40
2018-02-01T07:21:08.852Z,3.40
2018-02-01T07:23:37.136Z,3.20
2018-02-01T07:26:05.374Z,3.10
2018-02-01T07:28:32.865Z,3.10
2018-02-01T07:31:01.109Z,3.00
2018-02-01T07:33:28.583Z,3.00
2018-02-01T07:35:56.837Z,3.10
2018-02-01T07:38:24.310Z,3.10
2018-02-01T07:40:51.800Z,3.10
2018-02-01T07:43:19.285Z,3.10
2018-02-01T07:45:49.313Z,3.10
2018-02-01T07:48:16.785Z,3.10
2018-02-01T07:50:44.260Z,3.00
2018-02-01T07:53:11.745Z,3.00
2018-02-01T07:55:39.221Z,2.90
2018-02-01T07:58:06.709Z,2.80
2018-02-01T08:00:34.196Z,2.80
2018-02-01T08:03:02.473Z,2.90
2018-02-01T08:05:30.710Z,2.80
2018-02-01T08:07:58.193Z,2.80
2018-02-01T08:10:25.685Z,2.90
2018-02-01T08:12:53.170Z,3.00
2018-02-01T08:15:20.928Z,3.00
2018-02-01T08:17:48.526Z,3.00
2018-02-01T08:20:16.017Z,3.00
2018-02-01T08:22:43.493Z,3.00
2018-02-01T08:25:10.985Z,3.10
2018-02-01T08:27:38.458Z,3.10
2018-02-01T08:30:05.969Z,3.10
2018-02-01T08:32:33.457Z,3.10
2018-02-01T08:35:00.932Z,3.20
2018-02-01T08:37:28.423Z,3.20
2018-02-01T08:39:55.894Z,3.20
2018-02-01T08:42:23.385Z,3.20
2018-02-01T08:44:50.857Z,3.20
2018-02-01T08:47:18.357Z,3.30
2018-02-01T08:49:45.835Z,3.40
2018-02-01T08:52:13.386Z,3.60
2018-02-01T08:54:40.875Z,3.60
2018-02-01T08:57:08.345Z,3.50
2018-02-01T08:59:35.834Z,3.50
2018-02-01T09:02:04.069Z,3.70
2018-02-01T09:04:31.553Z,3.60
2018-02-01T09:07:00.078Z,3.60
2018-02-01T09:09:27.569Z,3.60
2018-02-01T09:11:55.037Z,3.70
2018-02-01T09:14:22.508Z,3.70
2018-02-01T09:16:50.756Z,3.70
2018-02-01T09:19:18.225Z,3.70
2018-02-01T09:21:45.716Z,3.70
2018-02-01T09:24:13.189Z,3.70
2018-02-01T09:26:40.685Z,3.70
2018-02-01T09:29:08.161Z,3.70
2018-02-01T09:31:36.409Z,3.60
2018-02-01T09:34:03.897Z,3.60
2018-02-01T09:36:32.133Z,3.50
2018-02-01T09:38:59.761Z,3.50
2018-02-01T09:41:27.233Z,3.60
2018-02-01T09:43:54.717Z,3.70
2018-02-01T09:46:22.201Z,3.70
2018-02-01T09:48:50.452Z,3.70
2018-02-01T09:51:17.925Z,3.80
2018-02-01T09:53:45.421Z,3.90
2018-02-01T09:56:12.892Z,3.90
2018-02-01T09:58:40.365Z,3.90
2018-02-01T10:01:07.851Z,3.90
2018-02-01T10:03:35.321Z,3.90
2018-02-01T10:06:03.577Z,3.90
2018-02-01T10:08:31.053Z,3.90
2018-02-01T10:10:59.584Z,3.90
2018-02-01T10:13:27.056Z,3.90
2018-02-01T10:15:54.525Z,4.00
2018-02-01T10:18:22.013Z,4.10
2018-02-01T10:20:50.532Z,4.20
2018-02-01T10:23:18.299Z,4.20
2018-02-01T10:25:45.777Z,4.30
2018-02-01T10:28:13.277Z,4.20
2018-02-01T10:30:41.793Z,4.30
2018-02-01T10:33:09.274Z,4.20
2018-02-01T10:35:36.760Z,4.20
2018-02-01T10:38:04.233Z,4.30
2018-02-01T10:40:32.489Z,4.30
2018-02-01T10:42:59.970Z,4.30
2018-02-01T10:45:27.444Z,4.40
2018-02-01T10:47:54.928Z,4.40
2018-02-01T10:50:22.396Z,4.40
2018-02-01T10:52:49.886Z,4.40
2018-02-01T10:55:18.133Z,4.40
2018-02-01T10:57:45.623Z,4.40
2018-02-01T11:00:13.968Z,4.00
2018-02-01T11:02:41.425Z,4.00
2018-02-01T11:05:09.681Z,3.70
2018-02-01T11:07:37.192Z,3.70
2018-02-01T11:10:05.453Z,3.80
2018-02-01T11:12:33.689Z,3.80
2018-02-01T11:15:01.209Z,3.80
2018-02-01T11:17:28.681Z,3.90
2018-02-01T11:19:56.156Z,4.00
2018-02-01T11:22:23.644Z,4.10
2018-02-01T11:24:51.117Z,4.20
2018-02-01T11:27:19.373Z,4.40
2018-02-01T11:29:46.953Z,4.40
2018-02-01T11:32:15.224Z,4.40
2018-02-01T11:34:43.801Z,4.40
2018-02-01T11:37:12.061Z,4.60
2018-02-01T11:39:39.556Z,4.50
2018-02-01T11:42:07.828Z,4.70
2018-02-01T11:44:36.085Z,4.70
2018-02-01T11:47:03.557Z,4.70
2018-02-01T11:49:31.817Z,4.70
2018-02-01T11:52:00.058Z,4.60
2018-02-01T11:54:27.545Z,4.60
2018-02-01T11:56:55.029Z,4.50
2018-02-01T11:59:23.269Z,4.40
2018-02-01T12:01:50.787Z,4.40
2018-02-01T12:04:18.262Z,4.50
2018-02-01T12:06:45.761Z,4.50
2018-02-01T12:09:14.002Z,4.50
2018-02-01T12:11:41.479Z,4.50
2018-02-01T12:14:09.136Z,4.40
2018-02-01T12:16:36.609Z,4.40
2018-02-01T12:19:04.101Z,4.40
2018-02-01T12:21:31.576Z,4.40
2018-02-01T12:23:59.064Z,4.40
2018-02-01T12:26:26.539Z,4.40
2018-02-01T12:28:54.793Z,4.40
2018-02-01T12:31:22.266Z,4.40
2018-02-01T12:33:50.528Z,4.40
2018-02-01T12:36:18.000Z,4.40
2018-02-01T12:38:45.480Z,4.40
2018-02-01T12:41:13.745Z,4.40
2018-02-01T12:43:41.989Z,4.40
2018-02-01T12:46:09.477Z,4.40
2018-02-01T12:48:37.712Z,4.40
2018-02-01T12:51:05.201Z,4.40
2018-02-01T12:53:32.673Z,4.30
2018-02-01T12:56:00.922Z,4.30
2018-02-01T12:58:28.401Z,4.30
2018-02-01T13:00:56.661Z,4.40
2018-02-01T13:03:24.132Z,4.40
2018-02-01T13:05:52.369Z,4.90
2018-02-01T13:08:19.864Z,4.90
2018-02-01T13:10:48.101Z,5.00
2018-02-01T13:13:15.592Z,5.00
2018-02-01T13:15:43.833Z,4.70
2018-02-01T13:18:11.327Z,4.70
2018-02-01T13:20:40.465Z,4.60
2018-02-01T13:23:07.937Z,4.50
2018-02-01T13:25:35.429Z,4.50
2018-02-01T13:28:03.141Z,4.50
2018-02-01T13:30:30.629Z,4.50
2018-02-01T13:32:58.105Z,4.50
2018-02-01T13:35:25.596Z,4.40
2018-02-01T13:37:53.072Z,4.40
2018-02-01T13:40:20.545Z,4.40
2018-02-01T13:42:48.033Z,4.30
2018-02-01T13:45:15.744Z,4.20
2018-02-01T13:47:43.237Z,4.00
2018-02-01T13:50:12.221Z,4.00
2018-02-01T13:52:39.708Z,4.00
2018-02-01T13:55:07.944Z,4.00
2018-02-01T13:57:35.411Z,4.00
2018-02-01T14:00:02.897Z,4.00
2018-02-01T14:02:31.137Z,4.00
2018-02-01T14:04:58.625Z,4.00
2018-02-01T14:07:26.097Z,4.00
2018-02-01T14:09:54.345Z,4.20
2018-02-01T14:12:21.832Z,4.10
2018-02-01T14:14:50.077Z,4.20
2018-02-01T14:17:17.609Z,4.20
2018-02-01T14:19:45.049Z,4.20
2018-02-01T14:22:12.525Z,4.20
2018-02-01T14:24:40.013Z,4.20
2018-02-01T14:27:07.485Z,4.20
2018-02-01T14:29:35.741Z,4.20
2018-02-01T14:32:04.842Z,4.20
2018-02-01T14:34:33.093Z,4.20
2018-02-01T14:37:00.586Z,4.20
2018-02-01T14:39:28.825Z,4.30
2018-02-01T14:41:56.329Z,4.30
2018-02-01T14:44:24.843Z,4.40
2018-02-01T14:46:52.313Z,4.40
2018-02-01T14:49:19.801Z,4.50
2018-02-01T14:51:48.042Z,4.60
2018-02-01T14:54:15.529Z,4.60
2018-02-01T14:56:43.009Z,4.60
2018-02-01T14:59:11.264Z,4.60
2018-02-01T15:01:38.733Z,4.60
2018-02-01T15:04:06.972Z,4.30
2018-02-01T15:06:34.457Z,4.30
2018-02-01T15:09:01.961Z,4.20
2018-02-01T15:11:29.449Z,4.30
2018-02-01T15:13:56.920Z,4.20
2018-02-01T15:16:25.176Z,4.10
2018-02-01T15:18:52.644Z,4.10
2018-02-01T15:21:20.150Z,4.10
2018-02-01T15:23:47.632Z,4.00
2018-02-01T15:26:15.146Z,3.90
2018-02-01T15:28:43.389Z,4.00
2018-02-01T15:31:10.862Z,4.00
2018-02-01T15:33:38.352Z,4.00
2018-02-01T15:36:05.849Z,3.90
2018-02-01T15:38:33.341Z,4.00
2018-02-01T15:41:00.821Z,3.90
2018-02-01T15:43:28.362Z,3.90
2018-02-01T15:45:57.325Z,3.90
2018-02-01T15:48:24.803Z,3.90
2018-02-01T15:50:52.292Z,3.90
2018-02-01T15:53:19.764Z,3.80
2018-02-01T15:55:47.253Z,3.80
2018-02-01T15:58:14.729Z,3.80
2018-02-01T16:00:42.223Z,3.80
2018-02-01T16:03:09.701Z,3.80
2018-02-01T16:05:37.172Z,3.70
2018-02-01T16:08:04.673Z,3.70
2018-02-01T16:10:32.913Z,3.70
2018-02-01T16:13:00.405Z,3.70
2018-02-01T16:15:28.718Z,3.70
2018-02-01T16:17:56.208Z,3.60
2018-02-01T16:20:23.681Z,3.60
2018-02-01T16:22:51.153Z,3.60
2018-02-01T16:25:19.438Z,3.60
2018-02-01T16:27:47.665Z,3.60
2018-02-01T16:30:15.154Z,3.60
2018-02-01T16:32:43.394Z,3.60
2018-02-01T16:35:10.880Z,3.50
2018-02-01T16:37:38.353Z,3.50
2018-02-01T16:40:06.608Z,3.50
2018-02-01T16:42:34.088Z,3.50
2018-02-01T16:45:02.342Z,3.40
2018-02-01T16:47:29.856Z,3.40
2018-02-01T16:49:57.331Z,3.40
2018-02-01T16:52:24.821Z,3.40
2018-02-01T16:54:52.293Z,3.40
2018-02-01T16:57:20.549Z,3.40
2018-02-01T16:59:48.021Z,3.40
2018-02-01T17:02:16.261Z,3.50
2018-02-01T17:04:43.762Z,3.50
2018-02-01T17:07:12.025Z,3.40
2018-02-01T17:09:40.280Z,3.50
2018-02-01T17:12:07.753Z,3.40
2018-02-01T17:14:36.009Z,3.50
2018-02-01T17:17:03.485Z,3.50
2018-02-01T17:19:30.977Z,3.50
2018-02-01T17:21:58.458Z,3.50
2018-02-01T17:24:25.933Z,3.50
2018-02-01T17:26:53.425Z,3.50
2018-02-01T17:29:21.665Z,3.50
2018-02-01T17:31:49.357Z,3.50
2018-02-01T17:34:17.593Z,3.50
2018-02-01T17:36:45.086Z,3.50
2018-02-01T17:39:12.553Z,3.50
2018-02-01T17:41:40.841Z,3.50
2018-02-01T17:44:08.321Z,3.50
2018-02-01T17:46:35.809Z,3.50
2018-02-01T17:49:03.284Z,3.60
2018-02-01T17:51:30.846Z,3.60
2018-02-01T17:53:58.321Z,3.50
2018-02-01T17:56:26.552Z,3.60
2018-02-01T17:58:54.041Z,3.50
2018-02-01T18:01:22.281Z,3.60
2018-02-01T18:03:49.769Z,3.60
2018-02-01T18:06:17.242Z,3.60
2018-02-01T18:08:45.493Z,3.70
2018-02-01T18:11:12.964Z,3.70
2018-02-01T18:13:41.396Z,3.70
2018-02-01T18:16:08.893Z,3.70
2018-02-01T18:18:36.602Z,3.70
2018-02-01T18:21:04.889Z,3.70
2018-02-01T18:23:32.365Z,3.70
2018-02-01T18:25:59.857Z,3.80
2018-02-01T18:28:28.098Z,3.70
2018-02-01T18:30:55.588Z,3.80
2018-02-01T18:33:23.829Z,3.80
2018-02-01T18:35:51.317Z,3.80
2018-02-01T18:38:19.841Z,3.70
2018-02-01T18:40:47.337Z,3.70
2018-02-01T18:43:14.808Z,3.70
2018-02-01T18:45:42.281Z,3.70
2018-02-01T18:48:10.567Z,3.60
2018-02-01T18:50:38.803Z,3.60
2018-02-01T18:53:06.527Z,3.60
2018-02-01T18:55:34.049Z,3.60
2018-02-01T18:58:02.314Z,3.50
2018-02-01T19:00:30.557Z,3.50
2018-02-01T19:02:58.825Z,3.50
2018-02-01T19:05:26.310Z,3.50
2018-02-01T19:07:54.054Z,3.50
2018-02-01T19:10:21.545Z,3.50
2018-02-01T19:12:49.789Z,3.60
2018-02-01T19:15:17.293Z,3.60
2018-02-01T19:17:44.833Z,3.50
2018-02-01T19:20:13.250Z,3.50
2018-02-01T19:22:40.764Z,3.40
2018-02-01T19:25:08.237Z,3.50
2018-02-01T19:27:36.488Z,3.50
2018-02-01T19:30:03.968Z,3.50
2018-02-01T19:32:32.208Z,3.50
2018-02-01T19:34:59.697Z,3.50
2018-02-01T19:37:27.937Z,3.50
2018-02-01T19:39:55.421Z,3.50
2018-02-01T19:42:23.665Z,3.60
2018-02-01T19:44:51.185Z,3.60
2018-02-01T19:47:18.668Z,3.60
2018-02-01T19:49:46.165Z,3.70
2018-02-01T19:52:13.653Z,3.70
2018-02-01T19:54:41.133Z,3.80
2018-02-01T19:57:08.621Z,3.80
2018-02-01T19:59:36.093Z,3.80
2018-02-01T20:02:03.590Z,3.80
2018-02-01T20:04:31.070Z,3.80
2018-02-01T20:06:58.549Z,3.80
2018-02-01T20:09:27.541Z,3.80
2018-02-01T20:11:55.015Z,3.80
2018-02-01T20:14:22.515Z,3.80
2018-02-01T20:16:49.986Z,3.90
2018-02-01T20:19:17.481Z,3.80
2018-02-01T20:21:44.976Z,3.90
2018-02-01T20:24:12.452Z,3.90
2018-02-01T20:26:39.941Z,3.90
2018-02-01T20:29:07.446Z,3.90
2018-02-01T20:31:34.937Z,3.90
2018-02-01T20:34:02.446Z,3.80
2018-02-01T20:36:30.697Z,3.80
2018-02-01T20:38:58.173Z,3.90
2018-02-01T20:41:26.584Z,3.90
2018-02-01T20:43:54.101Z,3.90
2018-02-01T20:46:21.617Z,3.90
2018-02-01T20:48:49.110Z,3.80
2018-02-01T20:51:16.832Z,3.80
2018-02-01T20:53:44.361Z,3.80
2018-02-01T20:56:11.853Z,3.70
2018-02-01T20:58:39.345Z,3.70
2018-02-01T21:01:07.351Z,3.60
2018-02-01T21:03:34.824Z,3.50
2018-02-01T21:06:02.323Z,3.20
2018-02-01T21:08:29.833Z,2.80
2018-02-01T21:10:57.356Z,2.40
2018-02-01T21:13:25.629Z,2.10
2018-02-01T21:15:53.892Z,2.00
2018-02-01T21:18:21.373Z,2.00
2018-02-01T21:20:50.465Z,1.80
2018-02-01T21:23:18.721Z,1.80
2018-02-01T21:25:46.965Z,1.90
2018-02-01T21:28:14.721Z,1.80
2018-02-01T21:30:42.196Z,1.90
2018-02-01T21:33:10.041Z,2.00
2018-02-01T21:35:37.517Z,2.00
2018-02-01T21:38:05.010Z,2.10
2018-02-01T21:40:33.262Z,2.20
2018-02-01T21:43:00.733Z,2.20
2018-02-01T21:45:28.225Z,2.20
2018-02-01T21:47:56.009Z,2.20
2018-02-01T21:50:23.498Z,2.30
2018-02-01T21:52:50.973Z,2.40
2018-02-01T21:55:18.465Z,2.40
2018-02-01T21:57:45.956Z,2.40
2018-02-01T22:00:13.429Z,2.40
2018-02-01T22:02:40.920Z,2.40
2018-02-01T22:05:09.156Z,2.40
2018-02-01T22:07:36.640Z,2.40
2018-02-01T22:10:04.921Z,2.40
2018-02-01T22:12:33.181Z,2.30
2018-02-01T22:15:00.652Z,2.30
2018-02-01T22:17:28.125Z,2.30
2018-02-01T22:19:55.618Z,2.20
2018-02-01T22:22:23.373Z,2.20
2018-02-01T22:24:50.861Z,2.30
2018-02-01T22:27:18.339Z,2.10
2018-02-01T22:29:47.010Z,2.20
2018-02-01T22:32:15.249Z,2.20
2018-02-01T22:34:42.733Z,2.20
2018-02-01T22:37:10.221Z,2.20
2018-02-01T22:39:38.456Z,2.10
2018-02-01T22:42:06.201Z,2.00
2018-02-01T22:44:33.676Z,1.90
2018-02-01T22:47:01.179Z,1.80
2018-02-01T22:49:29.417Z,2.00
2018-02-01T22:51:57.252Z,2.00
2018-02-01T22:54:24.750Z,2.10
2018-02-01T22:56:52.221Z,2.20
2018-02-01T22:59:20.476Z,2.20
2018-02-01T23:01:47.954Z,2.20
2018-02-01T23:04:16.212Z,2.30
2018-02-01T23:06:45.201Z,2.30
2018-02-01T23:09:12.706Z,2.30
2018-02-01T23:11:40.185Z,2.40
2018-02-01T23:14:07.669Z,2.40
2018-02-01T23:16:35.161Z,2.40
2018-02-01T23:19:02.657Z,2.40
2018-02-01T23:21:30.149Z,2.40
2018-02-01T23:23:57.616Z,2.30
2018-02-01T23:26:25.335Z,2.40
2018-02-01T23:28:52.809Z,2.40
2018-02-01T23:31:20.296Z,2.30
2018-02-01T23:33:47.769Z,2.30
2018-02-01T23:36:16.021Z,2.30
2018-02-01T23:38:43.489Z,2.30
2018-02-01T23:41:11.013Z,2.30
2018-02-01T23:43:38.485Z,2.30
2018-02-01T23:46:05.965Z,2.30
2018-02-01T23:48:33.449Z,2.30
2018-02-01T23:51:00.921Z,2.30
2018-02-01T23:53:28.413Z,2.30
2018-02-01T23:55:56.649Z,2.20
2018-02-01T23:58:24.149Z,2.20
